Time;durP1;ratioP1;P1;durP2;ratioP2;P2;SDS_P1;SDS_P2;PMS_P1;PMS_P2;Temp;Humidity;BMP_temperature;BMP_pressure;BME280_temperature;BME280_humidity;BME280_pressure;Samples;Min_cycle;Max_cycle;Signal;HPM_P1;HPM_P2
2023/05/22 00:00:53;;;;;;;;;;;;;;;16.50;67.45;94880.09;5075103;28;1033;-53
2023/05/22 00:03:23;;;;;;;;;;;;;;;16.15;68.63;94890.16;5074949;28;1037;-53
2023/05/22 00:05:49;;;;;;;;;;;;;;;15.70;71.32;94890.53;5075011;28;1035;-52
2023/05/22 00:08:15;;;;;;;;;;;;;;;15.74;71.36;94875.66;5074499;28;1645;-53
2023/05/22 00:10:41;;;;;;;;;;;;;;;16.00;69.73;94879.53;5074557;28;1081;-53
2023/05/22 00:13:07;;;;;;;;;;;;;;;16.09;70.15;94881.03;5074545;28;1014;-53
2023/05/22 00:15:33;;;;;;;;;;;;;;;16.01;70.78;94881.19;5074398;28;1226;-53
2023/05/22 00:17:59;;;;;;;;;;;;;;;15.98;69.98;94877.03;5074414;28;1996;-53
2023/05/22 00:20:26;;;;;;;;;;;;;;;16.15;68.74;94882.91;5074567;28;962;-53
2023/05/22 00:22:53;;;;;;;;;;;;;;;16.28;67.98;94890.22;5074363;28;1092;-52
2023/05/22 00:25:19;;;;;;;;;;;;;;;16.33;67.86;94890.44;5074279;28;1048;-53
2023/05/22 00:27:46;;;;;;;;;;;;;;;16.33;68.02;94890.44;5074523;28;965;-52
2023/05/22 00:30:12;;;;;;;;;;;;;;;16.29;68.03;94885.63;5074129;28;1104;-53
2023/05/22 00:32:38;;;;;;;;;;;;;;;16.37;68.29;94891.69;5074410;28;974;-53
2023/05/22 00:35:05;;;;;;;;;;;;;;;16.46;67.69;94891.50;5056386;28;1089;-52
2023/05/22 00:37:31;;;;;;;;;;;;;;;16.50;67.52;94888.19;5074166;28;967;-53
2023/05/22 00:39:57;;;;;;;;;;;;;;;16.48;68.09;94889.44;5074140;28;1914;-53
2023/05/22 00:42:23;;;;;;;;;;;;;;;16.47;67.84;94875.13;5073900;28;1105;-53
2023/05/22 00:44:49;;;;;;;;;;;;;;;16.37;68.25;94878.22;5073841;28;1109;-53
2023/05/22 00:47:15;;;;;;;;;;;;;;;16.35;68.80;94874.88;5074075;28;966;-53
2023/05/22 00:49:41;;;;;;;;;;;;;;;16.30;68.67;94876.53;5074040;28;1055;-53
2023/05/22 00:52:08;;;;;;;;;;;;;;;16.32;68.92;94872.59;5073012;28;1894;-52
2023/05/22 00:54:35;;;;;;;;;;;;;;;16.27;69.04;94866.13;5073925;28;1294;-53
2023/05/22 00:57:02;;;;;;;;;;;;;;;16.22;69.26;94858.66;5073610;28;1074;-53
2023/05/22 00:59:28;;;;;;;;;;;;;;;16.16;70.08;94875.63;5073793;28;1914;-53
2023/05/22 01:01:55;;;;;;;;;;;;;;;16.10;70.92;94874.56;5073903;28;966;-53
2023/05/22 01:04:22;;;;;;;;;;;;;;;16.02;70.96;94866.69;5073901;28;982;-53
2023/05/22 01:06:48;;;;;;;;;;;;;;;16.08;70.40;94873.13;5073592;28;1121;-53
2023/05/22 01:09:14;;;;;;;;;;;;;;;16.06;71.20;94880.59;5073389;28;1674;-53
2023/05/22 01:11:46;;;;;;;;;;;;;;;15.88;71.67;94868.50;5073382;28;1062;-53
2023/05/22 01:14:12;;;;;;;;;;;;;;;15.78;72.68;94876.97;5073712;28;1033;-52
2023/05/22 01:16:38;;;;;;;;;;;;;;;15.73;72.21;94874.03;5073675;28;1049;-53
2023/05/22 01:19:20;;;;;;;;;;;;;;;15.79;72.03;94878.59;5073352;28;1995;-53
2023/05/22 01:21:52;;;;;;;;;;;;;;;15.96;71.36;94867.50;5073435;28;1101;-52
2023/05/22 01:24:24;;;;;;;;;;;;;;;15.98;71.36;94868.94;5073255;28;941;-53
2023/05/22 01:27:09;;;;;;;;;;;;;;;16.00;71.26;94868.75;5073349;28;1037;-53
2023/05/22 01:30:04;;;;;;;;;;;;;;;15.94;72.07;94872.25;5073326;28;1275;-53
2023/05/22 01:32:32;;;;;;;;;;;;;;;15.87;72.58;94866.81;4984936;28;1277;-53
2023/05/22 01:35:00;;;;;;;;;;;;;;;15.92;72.19;94858.16;5073107;28;1026;-53
2023/05/22 01:37:26;;;;;;;;;;;;;;;16.02;72.28;94865.84;5073416;28;1045;-53
2023/05/22 01:39:53;;;;;;;;;;;;;;;15.98;72.72;94857.34;5073041;28;1918;-52
2023/05/22 01:42:19;;;;;;;;;;;;;;;15.98;72.54;94862.72;5073131;28;1117;-53
2023/05/22 01:44:47;;;;;;;;;;;;;;;15.99;72.34;94857.13;5073095;28;1092;-53
2023/05/22 01:47:13;;;;;;;;;;;;;;;15.99;72.30;94854.44;5073068;28;1184;-53
2023/05/22 01:49:40;;;;;;;;;;;;;;;15.97;72.34;94851.13;5073481;28;1071;-53
2023/05/22 01:52:11;;;;;;;;;;;;;;;15.95;72.54;94846.94;5073307;28;994;-53
2023/05/22 01:54:42;;;;;;;;;;;;;;;15.98;72.58;94851.94;5073318;28;1037;-53
2023/05/22 01:57:17;;;;;;;;;;;;;;;16.01;72.13;94848.81;5073140;28;1066;-53
2023/05/22 01:59:47;;;;;;;;;;;;;;;15.78;73.65;94850.00;5073268;28;1993;-53
2023/05/22 02:02:15;;;;;;;;;;;;;;;15.81;73.42;94841.50;5073022;28;1661;-53
2023/05/22 02:04:43;;;;;;;;;;;;;;;15.87;72.99;94847.13;5076503;28;1096;-53
2023/05/22 02:07:11;;;;;;;;;;;;;;;15.64;74.13;94853.63;5077176;28;1041;-53
2023/05/22 02:09:37;;;;;;;;;;;;;;;15.64;73.81;94853.63;5077053;28;1185;-53
2023/05/22 02:12:04;;;;;;;;;;;;;;;15.78;73.29;94850.00;5076921;28;1057;-53
2023/05/22 02:14:30;;;;;;;;;;;;;;;15.78;73.27;94858.09;5077030;28;1005;-53
2023/05/22 02:16:57;;;;;;;;;;;;;;;15.78;73.83;94855.41;5076737;28;1109;-53
2023/05/22 02:19:23;;;;;;;;;;;;;;;15.68;74.30;94854.88;5076954;28;1914;-52
2023/05/22 02:21:49;;;;;;;;;;;;;;;15.74;73.52;94859.50;5076891;28;1010;-53
2023/05/22 02:24:15;;;;;;;;;;;;;;;15.62;74.24;94856.50;5076491;28;1297;-53
2023/05/22 02:26:41;;;;;;;;;;;;;;;15.50;74.78;94854.56;5076657;28;1021;-53
2023/05/22 02:29:08;;;;;;;;;;;;;;;15.72;73.46;94864.22;5076479;28;1046;-53
2023/05/22 02:31:34;;;;;;;;;;;;;;;15.72;73.35;94860.72;5076692;28;1042;-53
2023/05/22 02:34:00;;;;;;;;;;;;;;;15.73;73.48;94863.25;5076656;28;974;-53
2023/05/22 02:36:26;;;;;;;;;;;;;;;15.76;73.26;94856.59;5076460;28;1052;-53
2023/05/22 02:38:54;;;;;;;;;;;;;;;15.83;72.88;94862.88;5076475;28;1910;-53
2023/05/22 02:41:20;;;;;;;;;;;;;;;15.76;73.47;94860.16;5076285;28;1037;-53
2023/05/22 02:43:46;;;;;;;;;;;;;;;15.79;72.95;94867.00;5076204;28;1235;-53
2023/05/22 02:46:12;;;;;;;;;;;;;;;15.66;74.12;94864.22;5076464;28;1021;-53
2023/05/22 02:48:38;;;;;;;;;;;;;;;15.62;74.25;94861.06;5076417;28;1281;-53
2023/05/22 02:51:04;;;;;;;;;;;;;;;15.56;74.74;94861.88;5076264;28;1029;-52
2023/05/22 02:53:32;;;;;;;;;;;;;;;15.53;74.39;94868.47;5076321;28;1048;-52
2023/05/22 02:55:58;;;;;;;;;;;;;;;15.52;74.53;94863.31;5076332;28;973;-52
2023/05/22 02:58:24;;;;;;;;;;;;;;;15.61;73.97;94867.47;5076179;28;1996;-53
2023/05/22 03:00:51;;;;;;;;;;;;;;;15.69;73.76;94866.47;5076256;28;1045;-53
2023/05/22 03:03:18;;;;;;;;;;;;;;;15.72;73.70;94860.72;5076055;28;956;-53
2023/05/22 03:05:44;;;;;;;;;;;;;;;15.69;73.90;94866.47;5076234;28;1021;-53
2023/05/22 03:08:11;;;;;;;;;;;;;;;15.68;73.81;94870.22;5075794;28;1579;-52
2023/05/22 03:10:37;;;;;;;;;;;;;;;15.64;74.14;94875.19;5075872;28;1044;-52
2023/05/22 03:13:03;;;;;;;;;;;;;;;15.67;73.85;94869.41;5076043;28;1032;-52
2023/05/22 03:15:29;;;;;;;;;;;;;;;15.65;74.01;94870.63;5074983;28;1049;-52
2023/05/22 03:17:55;;;;;;;;;;;;;;;15.69;73.78;94867.34;5075789;28;1976;-52
2023/05/22 03:20:21;;;;;;;;;;;;;;;15.63;73.66;94873.50;5075828;28;1013;-52
2023/05/22 03:22:47;;;;;;;;;;;;;;;15.62;73.70;94866.47;5075702;28;994;-52
2023/05/22 03:25:14;;;;;;;;;;;;;;;15.73;73.75;94868.63;5075544;28;978;-52
2023/05/22 03:27:40;;;;;;;;;;;;;;;15.60;74.17;94869.34;5075383;28;1092;-52
2023/05/22 03:30:07;;;;;;;;;;;;;;;15.65;73.91;94860.69;5075723;28;962;-52
2023/05/22 03:32:36;;;;;;;;;;;;;;;15.76;73.45;94873.63;5075350;28;1042;-52
2023/05/22 03:35:02;;;;;;;;;;;;;;;15.86;72.97;94869.72;5075574;28;1048;-52
2023/05/22 03:37:28;;;;;;;;;;;;;;;15.84;73.70;94863.69;5075146;28;1054;-52
2023/05/22 03:39:55;;;;;;;;;;;;;;;15.79;73.49;94865.13;5075026;28;1914;-52
2023/05/22 03:42:21;;;;;;;;;;;;;;;15.89;73.61;94863.94;5075354;28;1006;-52
2023/05/22 03:44:48;;;;;;;;;;;;;;;15.94;73.01;94867.69;5075112;28;1247;-52
2023/05/22 03:47:15;;;;;;;;;;;;;;;15.95;73.36;94876.59;5075239;28;1063;-52
2023/05/22 03:49:41;;;;;;;;;;;;;;;16.01;72.86;94875.78;5075360;28;1096;-52
2023/05/22 03:52:09;;;;;;;;;;;;;;;16.12;72.51;94874.38;5075181;28;1097;-52
2023/05/22 03:54:35;;;;;;;;;;;;;;;16.09;73.41;94880.19;5075227;28;1064;-52
2023/05/22 03:57:01;;;;;;;;;;;;;;;15.98;74.25;94881.59;5075201;28;997;-53
2023/05/22 03:59:27;;;;;;;;;;;;;;;16.02;74.04;94876.63;5074953;28;1910;-52
2023/05/22 04:01:53;;;;;;;;;;;;;;;16.02;73.81;94874.75;5074979;28;1006;-52
2023/05/22 04:04:19;;;;;;;;;;;;;;;16.00;74.38;94882.22;5075037;28;1001;-52
2023/05/22 04:06:45;;;;;;;;;;;;;;;16.01;73.57;94886.56;5075076;28;1212;-52
2023/05/22 04:09:11;;;;;;;;;;;;;;;16.15;73.06;94885.59;5074657;28;1599;-52
2023/05/22 04:11:41;;;;;;;;;;;;;;;16.21;73.85;94889.34;5074620;28;977;-52
2023/05/22 04:14:07;;;;;;;;;;;;;;;16.19;74.12;94889.56;5074843;28;1048;-52
2023/05/22 04:16:34;;;;;;;;;;;;;;;16.34;72.90;94891.28;5074613;28;1049;-52
2023/05/22 04:19:03;;;;;;;;;;;;;;;16.33;74.59;94897.69;5074672;28;1906;-51
2023/05/22 04:21:33;;;;;;;;;;;;;;;16.40;74.29;94887.75;5074443;28;1033;-52
2023/05/22 04:24:00;;;;;;;;;;;;;;;16.50;72.72;94895.44;5074294;28;974;-52
2023/05/22 04:26:30;;;;;;;;;;;;;;;16.51;73.98;94894.44;5074454;28;971;-53
2023/05/22 04:28:56;;;;;;;;;;;;;;;16.57;72.42;94896.31;5074527;28;1053;-53
2023/05/22 04:31:22;;;;;;;;;;;;;;;16.61;72.80;94891.31;5074453;28;1051;-53
2023/05/22 04:33:49;;;;;;;;;;;;;;;16.73;71.98;94892.38;5074357;28;1028;-53
2023/05/22 04:36:16;;;;;;;;;;;;;;;16.86;72.88;94895.13;5074367;28;962;-53
2023/05/22 04:38:43;;;;;;;;;;;;;;;16.81;71.54;94894.91;5074263;28;1906;-53
2023/05/22 04:41:13;;;;;;;;;;;;;;;16.78;72.56;94889.91;5073897;28;1073;-53
2023/05/22 04:43:39;;;;;;;;;;;;;;;16.82;73.81;94901.13;5073998;28;1121;-53
2023/05/22 04:46:07;;;;;;;;;;;;;;;16.90;71.47;94891.00;5074232;28;1021;-53
2023/05/22 04:48:34;;;;;;;;;;;;;;;16.88;71.83;94895.75;5073944;28;1243;-53
2023/05/22 04:51:01;;;;;;;;;;;;;;;17.10;72.23;94898.25;5073805;28;1201;-52
2023/05/22 04:53:29;;;;;;;;;;;;;;;17.49;71.29;94899.25;5073663;28;1052;-53
2023/05/22 04:55:55;;;;;;;;;;;;;;;17.81;69.33;94897.53;5074025;28;1031;-52
2023/05/22 04:58:22;;;;;;;;;;;;;;;18.18;68.74;94894.34;5073704;28;1996;-53
2023/05/22 05:00:48;;;;;;;;;;;;;;;18.60;69.10;94897.47;5073649;28;1033;-53
2023/05/22 05:03:14;;;;;;;;;;;;;;;18.84;66.03;94901.31;5073598;28;1037;-52
2023/05/22 05:05:40;;;;;;;;;;;;;;;18.72;66.60;94910.09;5073567;28;1053;-52
2023/05/22 05:08:06;;;;;;;;;;;;;;;18.45;67.68;94903.16;5073439;28;1054;-52
2023/05/22 05:10:32;;;;;;;;;;;;;;;18.28;67.54;94900.13;5053463;28;1070;-52
2023/05/22 05:12:58;;;;;;;;;;;;;;;18.43;67.51;94897.94;5053541;28;1046;-53
2023/05/22 05:15:26;;;;;;;;;;;;;;;18.69;66.18;94898.88;5053586;28;1013;-53
2023/05/22 05:17:52;;;;;;;;;;;;;;;18.91;65.60;94902.06;5053470;28;1902;-53
2023/05/22 05:20:18;;;;;;;;;;;;;;;19.08;64.61;94902.38;5053658;28;954;-53
2023/05/22 05:22:45;;;;;;;;;;;;;;;18.96;65.18;94896.00;5053295;28;1120;-53
2023/05/22 05:25:11;;;;;;;;;;;;;;;18.70;65.13;94897.81;5053268;28;1073;-53
2023/05/22 05:27:37;;;;;;;;;;;;;;;18.59;65.68;94901.19;5053612;28;1216;-53
2023/05/22 05:30:03;;;;;;;;;;;;;;;18.81;65.62;94894.44;5053541;28;1028;-53
2023/05/22 05:32:29;;;;;;;;;;;;;;;18.99;64.97;94899.13;5053373;28;1017;-53
2023/05/22 05:34:56;;;;;;;;;;;;;;;19.34;62.38;94895.91;5035679;28;2005;-53
2023/05/22 05:37:22;;;;;;;;;;;;;;;19.64;61.84;94893.34;5052952;28;1042;-52
2023/05/22 05:39:48;;;;;;;;;;;;;;;20.08;62.94;94896.84;5053189;28;1998;-53
2023/05/22 05:42:16;;;;;;;;;;;;;;;20.18;61.46;94900.94;5053207;28;1069;-53
2023/05/22 05:44:42;;;;;;;;;;;;;;;19.86;61.69;94904.63;5053226;28;1303;-53
2023/05/22 05:47:08;;;;;;;;;;;;;;;20.25;59.65;94905.22;5035638;28;1079;-53
2023/05/22 05:49:34;;;;;;;;;;;;;;;20.30;59.78;94899.13;5053216;28;1548;-53
2023/05/22 05:52:00;;;;;;;;;;;;;;;20.23;60.98;94904.63;5053045;28;1038;-53
2023/05/22 05:54:26;;;;;;;;;;;;;;;20.65;60.38;94907.44;5053081;28;1080;-53
2023/05/22 05:56:53;;;;;;;;;;;;;;;20.47;59.29;94910.19;5053067;28;947;-53
2023/05/22 05:59:19;;;;;;;;;;;;;;;20.24;59.29;94911.72;5035396;28;1992;-53
2023/05/22 06:01:46;;;;;;;;;;;;;;;19.90;60.82;94907.72;5053032;28;2007;-53
2023/05/22 06:04:12;;;;;;;;;;;;;;;19.73;61.52;94912.06;5052894;28;1031;-53
2023/05/22 06:06:38;;;;;;;;;;;;;;;19.89;60.70;94911.47;5053040;28;1052;-53
2023/05/22 06:09:07;;;;;;;;;;;;;;;19.70;60.23;94916.84;5060681;28;1340;-53
2023/05/22 06:11:33;;;;;;;;;;;;;;;19.51;62.16;94926.00;5072845;28;1058;-53
2023/05/22 06:14:03;;;;;;;;;;;;;;;19.47;61.54;94928.31;5055174;28;1094;-52
2023/05/22 06:16:29;;;;;;;;;;;;;;;19.36;62.57;94926.34;5072775;28;1326;-53
2023/05/22 06:18:58;;;;;;;;;;;;;;;19.21;60.48;94921.22;5072824;28;1910;-53
2023/05/22 06:21:25;;;;;;;;;;;;;;;19.19;61.40;94920.63;5072633;28;1527;-53
2023/05/22 06:23:52;;;;;;;;;;;;;;;19.29;60.44;94914.72;5073025;28;1009;-52
2023/05/22 06:26:18;;;;;;;;;;;;;;;19.42;60.63;94925.44;5072674;28;1034;-53
2023/05/22 06:28:44;;;;;;;;;;;;;;;19.44;59.93;94922.50;5072706;28;1030;-53
2023/05/22 06:31:11;;;;;;;;;;;;;;;19.53;62.62;94923.91;5072966;28;1081;-53
2023/05/22 06:33:38;;;;;;;;;;;;;;;19.53;62.53;94921.19;5072683;28;1956;-53
2023/05/22 06:36:05;;;;;;;;;;;;;;;19.42;59.95;94920.00;5072907;28;966;-52
2023/05/22 06:38:31;;;;;;;;;;;;;;;19.58;59.85;94917.78;5072432;28;1917;-52
2023/05/22 06:40:57;;;;;;;;;;;;;;;19.95;58.61;94907.84;5072928;28;1041;-52
2023/05/22 06:43:24;;;;;;;;;;;;;;;20.45;57.05;94915.00;5072523;28;1258;-53
2023/05/22 06:45:50;;;;;;;;;;;;;;;20.55;57.77;94914.47;5072908;28;1035;-53
2023/05/22 06:48:16;;;;;;;;;;;;;;;20.48;58.24;94912.66;5072431;28;1061;-53
2023/05/22 06:50:42;;;;;;;;;;;;;;;20.32;58.30;94918.72;5074283;28;1049;-53
2023/05/22 06:53:08;;;;;;;;;;;;;;;20.17;59.41;94918.28;5076186;28;1048;-53
2023/05/22 06:55:34;;;;;;;;;;;;;;;20.12;59.47;94918.13;5076210;28;1234;-52
2023/05/22 06:58:01;;;;;;;;;;;;;;;20.02;58.10;94919.47;5076263;28;1906;-53
2023/05/22 07:00:27;;;;;;;;;;;;;;;20.02;58.77;94915.94;5076040;28;965;-53
2023/05/22 07:02:53;;;;;;;;;;;;;;;20.02;58.23;94914.03;5076107;28;1139;-53
2023/05/22 07:05:19;;;;;;;;;;;;;;;19.96;59.12;94914.97;5076301;28;1033;-52
2023/05/22 07:07:45;;;;;;;;;;;;;;;20.16;57.39;94914.72;5076194;28;983;-52
2023/05/22 07:10:11;;;;;;;;;;;;;;;20.25;57.06;94913.34;5075950;28;1654;-53
2023/05/22 07:12:37;;;;;;;;;;;;;;;20.38;57.63;94914.28;5076099;28;960;-53
2023/05/22 07:15:03;;;;;;;;;;;;;;;20.48;58.20;94912.66;5075858;28;965;-52
2023/05/22 07:17:30;;;;;;;;;;;;;;;20.57;57.88;94909.63;5075630;28;973;-52
2023/05/22 07:19:56;;;;;;;;;;;;;;;20.60;58.42;94910.03;5075826;28;1906;-52
2023/05/22 07:22:22;;;;;;;;;;;;;;;20.61;57.94;94908.16;5075509;28;1064;-53
2023/05/22 07:24:49;;;;;;;;;;;;;;;20.51;56.45;94911.38;5075761;28;1033;-53
2023/05/22 07:27:15;;;;;;;;;;;;;;;20.38;55.87;94909.66;5075810;28;1076;-53
2023/05/22 07:29:41;;;;;;;;;;;;;;;20.39;56.10;94907.75;5075440;28;1065;-52
2023/05/22 07:32:07;;;;;;;;;;;;;;;20.29;54.81;94903.69;5075410;28;1074;-53
2023/05/22 07:34:33;;;;;;;;;;;;;;;20.27;56.57;94907.72;5075347;28;1202;-52
2023/05/22 07:37:00;;;;;;;;;;;;;;;20.27;56.72;94899.56;5075446;28;1208;-54
2023/05/22 07:39:26;;;;;;;;;;;;;;;20.28;56.03;94903.94;5075471;28;1910;-53
2023/05/22 07:41:53;;;;;;;;;;;;;;;20.29;55.76;94897.44;5075509;28;1025;-53
2023/05/22 07:44:19;;;;;;;;;;;;;;;20.32;56.39;94907.00;5075145;28;1309;-54
2023/05/22 07:46:45;;;;;;;;;;;;;;;20.41;55.95;94905.66;5075481;28;981;-54
2023/05/22 07:49:11;;;;;;;;;;;;;;;20.42;55.43;94902.72;5075368;28;1068;-53
2023/05/22 07:51:39;;;;;;;;;;;;;;;20.51;56.57;94899.66;5075018;28;1125;-54
2023/05/22 07:54:06;;;;;;;;;;;;;;;20.71;54.76;94888.59;5074966;28;1088;-54
2023/05/22 07:56:35;;;;;;;;;;;;;;;21.25;54.93;94895.69;5057287;28;1036;-54
2023/05/22 07:59:01;;;;;;;;;;;;;;;21.66;54.49;94897.78;5074742;28;1995;-54
2023/05/22 08:01:27;;;;;;;;;;;;;;;21.85;52.06;94904.72;5074322;28;1120;-53
2023/05/22 08:03:53;;;;;;;;;;;;;;;21.98;51.84;94899.03;5075063;28;1045;-53
2023/05/22 08:06:21;;;;;;;;;;;;;;;22.17;49.81;94901.63;5074505;28;1045;-53
2023/05/22 08:08:48;;;;;;;;;;;;;;;21.96;51.26;94887.56;5073800;28;1288;-53
2023/05/22 08:11:14;;;;;;;;;;;;;;;21.98;52.01;94896.31;5073330;28;990;-53
2023/05/22 08:13:40;;;;;;;;;;;;;;;22.16;51.09;94894.53;5074466;28;1046;-53
2023/05/22 08:16:06;;;;;;;;;;;;;;;22.29;48.29;94902.47;5074374;28;1053;-53
2023/05/22 08:18:32;;;;;;;;;;;;;;;22.32;47.97;94893.00;5074241;28;1906;-53
2023/05/22 08:20:59;;;;;;;;;;;;;;;22.30;48.50;94895.94;5074564;28;1001;-53
2023/05/22 08:23:25;;;;;;;;;;;;;;;22.51;45.23;94907.25;5074389;28;1052;-53
2023/05/22 08:25:51;;;;;;;;;;;;;;;22.70;46.72;94899.72;5074351;28;986;-53
2023/05/22 08:28:17;;;;;;;;;;;;;;;22.66;45.66;94899.38;5074161;28;1101;-53
2023/05/22 08:30:43;;;;;;;;;;;;;;;22.78;47.69;94902.06;5074133;28;1016;-53
2023/05/22 08:33:10;;;;;;;;;;;;;;;22.87;47.89;94899.78;5074252;28;1025;-53
2023/05/22 08:35:36;;;;;;;;;;;;;;;22.69;47.04;94904.38;5074237;28;1033;-53
2023/05/22 08:38:02;;;;;;;;;;;;;;;22.65;48.39;94897.75;5074120;28;1914;-53
2023/05/22 08:40:33;;;;;;;;;;;;;;;22.61;47.57;94899.28;5073932;28;1050;-53
2023/05/22 08:42:59;;;;;;;;;;;;;;;22.88;46.92;94904.16;5073876;28;1282;-54
2023/05/22 08:45:28;;;;;;;;;;;;;;;23.62;45.15;94906.00;5074135;28;1052;-54
2023/05/22 08:47:56;;;;;;;;;;;;;;;24.51;45.24;94911.44;5074106;28;1048;-53
2023/05/22 08:50:23;;;;;;;;;;;;;;;24.95;45.24;94907.81;5073842;28;1037;-53
2023/05/22 08:52:50;;;;;;;;;;;;;;;25.39;45.59;94901.44;5073909;28;1052;-54
2023/05/22 08:55:18;;;;;;;;;;;;;;;25.43;42.87;94908.84;5073997;28;1005;-54
2023/05/22 08:57:44;;;;;;;;;;;;;;;24.92;40.57;94902.84;5073767;28;1009;-54
2023/05/22 09:00:11;;;;;;;;;;;;;;;24.63;42.02;94900.34;5073439;28;2296;-54
2023/05/22 09:02:37;;;;;;;;;;;;;;;24.82;43.36;94887.16;5073923;28;993;-54
2023/05/22 09:05:07;;;;;;;;;;;;;;;24.45;41.95;94897.91;5073953;28;1049;-53
2023/05/22 09:07:33;;;;;;;;;;;;;;;24.45;42.90;94892.44;5073698;28;1040;-54
2023/05/22 09:10:00;;;;;;;;;;;;;;;24.27;41.70;94897.16;5073464;28;1308;-54
2023/05/22 09:12:26;;;;;;;;;;;;;;;23.88;42.37;94888.94;5072808;28;965;-54
2023/05/22 09:14:52;;;;;;;;;;;;;;;23.72;42.91;94889.78;5073572;28;1045;-54
2023/05/22 09:17:19;;;;;;;;;;;;;;;23.66;44.65;94880.69;5073566;28;963;-54
2023/05/22 09:19:46;;;;;;;;;;;;;;;23.49;44.91;94888.91;5073384;28;1906;-54
2023/05/22 09:22:12;;;;;;;;;;;;;;;23.18;42.58;94896.56;5073180;28;1209;-54
2023/05/22 09:24:41;;;;;;;;;;;;;;;22.95;43.88;94883.84;5073578;28;1018;-54
2023/05/22 09:27:08;;;;;;;;;;;;;;;23.17;43.85;94884.00;5073278;28;999;-53
2023/05/22 09:29:51;;;;;;;;;;;;;;;23.14;42.45;94894.56;5073459;28;981;-53
2023/05/22 09:32:17;;;;;;;;;;;;;;;23.18;42.90;94893.00;5073443;28;1037;-53
2023/05/22 09:34:45;;;;;;;;;;;;;;;23.16;44.18;94885.09;5073126;28;1016;-53
2023/05/22 09:37:15;;;;;;;;;;;;;;;23.10;43.54;94880.59;5073169;28;978;-53
2023/05/22 09:39:45;;;;;;;;;;;;;;;22.92;44.96;94884.34;5073343;28;1913;-53
2023/05/22 09:42:16;;;;;;;;;;;;;;;22.69;46.13;94879.00;5073345;28;1045;-53
2023/05/22 09:44:47;;;;;;;;;;;;;;;22.32;46.12;94877.47;5073066;28;1217;-53
2023/05/22 09:47:13;;;;;;;;;;;;;;;22.46;45.98;94879.91;5073346;28;973;-53
2023/05/22 09:49:43;;;;;;;;;;;;;;;22.44;47.69;94876.59;5072967;28;1042;-53
2023/05/22 09:52:11;;;;;;;;;;;;;;;22.22;47.28;94879.97;5073284;28;1146;-53
2023/05/22 09:54:57;;;;;;;;;;;;;;;22.12;44.54;94888.75;5073444;28;983;-53
2023/05/22 09:57:24;;;;;;;;;;;;;;;22.02;45.59;94878.47;5072805;28;2229;-54
2023/05/22 09:59:53;;;;;;;;;;;;;;;22.18;45.92;94876.88;5073159;28;1909;-53
2023/05/22 10:02:22;;;;;;;;;;;;;;;21.96;45.67;94873.13;5072901;28;1895;-54
2023/05/22 10:04:49;;;;;;;;;;;;;;;21.89;45.98;94875.97;5072753;28;1037;-53
2023/05/22 10:07:16;;;;;;;;;;;;;;;21.81;46.62;94876.34;5072976;28;963;-53
2023/05/22 10:09:43;;;;;;;;;;;;;;;21.81;45.41;94879.06;5072754;28;1261;-53
2023/05/22 10:12:15;;;;;;;;;;;;;;;21.97;45.60;94872.09;5072895;28;974;-53
2023/05/22 10:14:41;;;;;;;;;;;;;;;22.21;46.34;94864.69;5072948;28;990;-53
2023/05/22 10:17:10;;;;;;;;;;;;;;;22.45;46.12;94862.75;5073281;28;1048;-54
2023/05/22 10:19:36;;;;;;;;;;;;;;;22.55;45.81;94859.41;5072503;28;2002;-53
2023/05/22 10:22:03;;;;;;;;;;;;;;;22.53;45.12;94862.34;5072941;28;1016;-53
2023/05/22 10:24:30;;;;;;;;;;;;;;;22.49;46.51;94860.38;5074352;28;1014;-53
2023/05/22 10:26:56;;;;;;;;;;;;;;;22.38;47.63;94862.06;5076530;28;1042;-53
2023/05/22 10:29:32;;;;;;;;;;;;;;;22.35;47.81;94860.66;5076733;28;1040;-53
2023/05/22 10:32:04;;;;;;;;;;;;;;;22.16;47.47;94856.44;5076439;28;970;-57
2023/05/22 10:34:39;;;;;;;;;;;;;;;22.20;47.41;94865.75;5076312;28;929;-53
2023/05/22 10:37:05;;;;;;;;;;;;;;;22.18;47.92;94868.72;5076793;28;1008;-53
2023/05/22 10:39:40;;;;;;;;;;;;;;;22.20;48.61;94869.31;5076558;28;1891;-53
2023/05/22 10:42:13;;;;;;;;;;;;;;;22.25;46.32;94862.31;5076700;28;1128;-54
2023/05/22 10:44:40;;;;;;;;;;;;;;;22.20;47.88;94863.84;5058511;28;1118;-53
2023/05/22 10:47:11;;;;;;;;;;;;;;;22.06;45.90;94864.38;5076604;28;973;-53
2023/05/22 10:49:39;;;;;;;;;;;;;;;22.19;47.19;94864.91;5076506;28;1052;-54
2023/05/22 10:52:07;;;;;;;;;;;;;;;22.36;48.05;94858.75;5076413;28;1876;-52
2023/05/22 10:54:41;;;;;;;;;;;;;;;22.47;48.32;94852.44;5076026;28;1236;-54
2023/05/22 10:57:17;;;;;;;;;;;;;;;22.48;48.42;94847.81;5076537;28;1069;-55
2023/05/22 10:59:46;;;;;;;;;;;;;;;22.35;46.00;94855.22;5058319;28;1969;-54
2023/05/22 11:02:27;;;;;;;;;;;;;;;22.31;48.81;94839.56;5076385;28;974;-54
2023/05/22 11:04:53;;;;;;;;;;;;;;;22.39;50.46;94837.31;5076328;28;1303;-54
2023/05/22 11:07:20;;;;;;;;;;;;;;;22.53;49.47;94835.13;5076186;28;958;-54
2023/05/22 11:09:47;;;;;;;;;;;;;;;22.41;50.31;94842.53;5076092;28;1614;-53
2023/05/22 11:12:15;;;;;;;;;;;;;;;22.42;44.14;94857.78;5075882;28;1100;-54
2023/05/22 11:14:41;;;;;;;;;;;;;;;22.35;44.54;94844.31;5076145;28;1033;-53
2023/05/22 11:17:10;;;;;;;;;;;;;;;22.55;44.87;94843.03;5075916;28;974;-54
2023/05/22 11:19:38;;;;;;;;;;;;;;;22.62;43.64;94846.47;5075925;28;1991;-54
2023/05/22 11:22:04;;;;;;;;;;;;;;;22.85;43.67;94837.34;5075741;28;958;-54
2023/05/22 11:24:33;;;;;;;;;;;;;;;23.17;43.38;94836.81;5075475;28;989;-54
2023/05/22 11:27:05;;;;;;;;;;;;;;;23.34;43.33;94828.63;5075739;28;959;-53
2023/05/22 11:29:32;;;;;;;;;;;;;;;23.45;40.48;94832.34;5075583;28;978;-53
2023/05/22 11:31:59;;;;;;;;;;;;;;;23.45;38.44;94835.91;5075468;28;1893;-54
2023/05/22 11:34:25;;;;;;;;;;;;;;;23.49;38.84;94831.59;5075588;28;1041;-54
2023/05/22 11:36:51;;;;;;;;;;;;;;;23.47;38.64;94841.94;5074622;28;1021;-54
2023/05/22 11:39:17;;;;;;;;;;;;;;;23.55;39.78;94827.03;5075178;28;2000;-54
2023/05/22 11:41:43;;;;;;;;;;;;;;;23.79;39.86;94827.69;5075243;28;1001;-53
2023/05/22 11:44:10;;;;;;;;;;;;;;;23.86;39.53;94832.97;5075174;28;1081;-54
2023/05/22 11:46:37;;;;;;;;;;;;;;;23.85;37.75;94834.88;5075329;28;962;-53
2023/05/22 11:49:03;;;;;;;;;;;;;;;23.76;37.95;94833.63;5075218;28;1044;-53
2023/05/22 11:51:29;;;;;;;;;;;;;;;23.64;38.55;94825.53;5075152;28;970;-53
2023/05/22 11:53:56;;;;;;;;;;;;;;;23.59;41.89;94820.81;5074904;28;1133;-53
2023/05/22 11:56:22;;;;;;;;;;;;;;;23.62;38.78;94826.84;5075006;28;1036;-53
2023/05/22 11:58:48;;;;;;;;;;;;;;;23.68;39.81;94823.16;5074777;28;1906;-53
2023/05/22 12:01:14;;;;;;;;;;;;;;;23.84;41.85;94826.94;5074684;28;1046;-53
2023/05/22 12:03:40;;;;;;;;;;;;;;;23.65;41.24;94837.28;5074782;28;1044;-54
2023/05/22 12:06:07;;;;;;;;;;;;;;;23.34;39.38;94834.09;5056640;28;1081;-54
2023/05/22 12:08:34;;;;;;;;;;;;;;;23.17;38.93;94837.63;5074853;28;1053;-54
2023/05/22 12:11:03;;;;;;;;;;;;;;;22.92;38.05;94837.19;5074627;28;1049;-53
2023/05/22 12:13:29;;;;;;;;;;;;;;;22.86;37.93;94835.44;5074390;28;1267;-54
2023/05/22 12:15:59;;;;;;;;;;;;;;;22.78;38.86;94833.94;5074782;28;1309;-54
2023/05/22 12:18:26;;;;;;;;;;;;;;;22.79;40.07;94830.97;5074440;28;1905;-54
2023/05/22 12:20:53;;;;;;;;;;;;;;;22.88;39.60;94839.56;5074657;28;973;-54
2023/05/22 12:23:20;;;;;;;;;;;;;;;22.69;38.75;94843.56;5074519;28;1049;-53
2023/05/22 12:25:46;;;;;;;;;;;;;;;22.67;38.74;94835.66;5074439;28;1036;-53
2023/05/22 12:28:12;;;;;;;;;;;;;;;22.78;40.60;94832.06;5074500;28;1060;-53
2023/05/22 12:30:39;;;;;;;;;;;;;;;22.79;41.60;94835.59;5074180;28;1869;-53
2023/05/22 12:33:12;;;;;;;;;;;;;;;22.84;40.19;94832.97;5074101;28;1030;-53
2023/05/22 12:35:38;;;;;;;;;;;;;;;22.91;39.53;94832.78;5074083;28;1104;-53
2023/05/22 12:38:06;;;;;;;;;;;;;;;22.88;38.02;94842.31;5074036;28;1987;-53
2023/05/22 12:40:32;;;;;;;;;;;;;;;22.77;41.39;94830.38;5073923;28;1015;-52
2023/05/22 12:42:58;;;;;;;;;;;;;;;22.80;39.57;94834.50;5073823;28;1096;-53
2023/05/22 12:45:24;;;;;;;;;;;;;;;22.83;39.34;94827.75;5074216;28;1041;-54
2023/05/22 12:47:50;;;;;;;;;;;;;;;22.86;40.26;94828.09;5072847;28;1962;-53
2023/05/22 12:50:16;;;;;;;;;;;;;;;22.90;39.81;94831.97;5073757;28;1026;-53
2023/05/22 12:52:42;;;;;;;;;;;;;;;22.98;39.63;94828.03;5073795;28;1050;-54
2023/05/22 12:55:09;;;;;;;;;;;;;;;23.01;40.08;94822.06;5073951;28;986;-53
2023/05/22 12:57:35;;;;;;;;;;;;;;;23.08;39.23;94832.84;5073837;28;1021;-54